createdAt,value
2023-04-15T00:02:18.553Z,6.40
2023-04-15T00:04:48.665Z,6.50
2023-04-15T00:07:16.218Z,6.50
2023-04-15T00:09:44.719Z,6.30
2023-04-15T00:12:12.562Z,6.20
2023-04-15T00:14:39.427Z,6.30
2023-04-15T00:17:06.261Z,6.30
2023-04-15T00:19:33.369Z,6.30
2023-04-15T00:22:00.787Z,6.30
2023-04-15T00:24:28.041Z,6.40
2023-04-15T00:26:54.773Z,6.30
2023-04-15T00:29:21.686Z,6.20
2023-04-15T00:31:48.401Z,6.20
2023-04-15T00:34:15.343Z,6.20
2023-04-15T00:36:43.547Z,6.10
2023-04-15T00:39:10.399Z,6.10
2023-04-15T00:41:39.306Z,5.90
2023-04-15T00:44:07.030Z,5.80
2023-04-15T00:46:37.255Z,5.70
2023-04-15T00:49:07.528Z,6.00
2023-04-15T00:51:37.452Z,6.00
2023-04-15T00:54:05.151Z,6.10
2023-04-15T00:56:38.090Z,6.00
2023-04-15T00:59:08.516Z,6.10
2023-04-15T01:01:38.849Z,6.20
2023-04-15T01:04:06.975Z,6.30
2023-04-15T01:06:34.278Z,6.10
2023-04-15T01:09:01.537Z,6.20
2023-04-15T01:11:29.245Z,6.20
2023-04-15T01:13:58.450Z,6.00
2023-04-15T01:16:26.807Z,5.90
2023-04-15T01:18:53.614Z,5.80
2023-04-15T01:21:20.678Z,5.90
2023-04-15T01:23:48.481Z,5.90
2023-04-15T01:26:16.392Z,6.10
2023-04-15T01:28:43.578Z,6.10
2023-04-15T01:31:13.465Z,6.00
2023-04-15T01:33:42.608Z,6.10
2023-04-15T01:36:10.840Z,6.20
2023-04-15T01:38:38.649Z,6.20
2023-04-15T01:41:07.590Z,6.20
2023-04-15T01:43:37.724Z,6.20
2023-04-15T01:46:04.565Z,6.10
2023-04-15T01:48:32.565Z,6.20
2023-04-15T01:50:59.671Z,6.20
2023-04-15T01:53:26.808Z,6.10
2023-04-15T01:55:53.485Z,6.10
2023-04-15T01:58:20.610Z,6.00
2023-04-15T02:00:47.685Z,6.20
2023-04-15T02:03:14.441Z,6.10
2023-04-15T02:05:41.172Z,6.20
2023-04-15T02:08:07.878Z,6.20
2023-04-15T02:10:36.963Z,6.20
2023-04-15T02:13:05.390Z,6.20
2023-04-15T02:15:33.413Z,6.10
2023-04-15T02:18:01.180Z,6.20
2023-04-15T02:20:28.322Z,6.20
2023-04-15T02:22:57.611Z,6.20
2023-04-15T02:25:24.446Z,6.20
2023-04-15T02:27:51.605Z,6.10
2023-04-15T02:30:19.009Z,6.10
2023-04-15T02:32:46.602Z,6.10
2023-04-15T02:35:13.408Z,6.20
2023-04-15T02:37:45.826Z,6.20
2023-04-15T02:40:13.451Z,6.10
2023-04-15T02:42:41.471Z,6.10
2023-04-15T02:45:13.158Z,6.20
2023-04-15T02:47:41.696Z,6.20
2023-04-15T02:50:09.954Z,6.20
2023-04-15T02:52:36.641Z,6.20
2023-04-15T02:55:04.414Z,6.10
2023-04-15T02:57:31.169Z,6.00
2023-04-15T03:00:04.825Z,5.90
2023-04-15T03:02:36.956Z,6.00
2023-04-15T03:05:06.317Z,6.10
2023-04-15T03:07:33.434Z,6.10
2023-04-15T03:10:02.236Z,6.10
2023-04-15T03:12:30.367Z,6.10
2023-04-15T03:14:58.067Z,6.20
2023-04-15T03:17:32.903Z,6.10
2023-04-15T03:20:01.331Z,6.00
2023-04-15T03:22:28.268Z,6.00
2023-04-15T03:24:55.346Z,6.00
2023-04-15T03:27:22.221Z,6.00
2023-04-15T03:29:49.286Z,6.10
2023-04-15T03:32:17.483Z,6.10
2023-04-15T03:34:44.549Z,6.10
2023-04-15T03:37:11.791Z,6.20
2023-04-15T03:39:38.982Z,6.20
2023-04-15T03:42:06.064Z,6.10
2023-04-15T03:44:32.866Z,6.20
2023-04-15T03:46:59.646Z,6.20
2023-04-15T03:49:26.393Z,6.20
2023-04-15T03:51:53.110Z,6.20
2023-04-15T03:54:19.824Z,6.20
2023-04-15T03:56:46.599Z,6.20
2023-04-15T03:59:13.297Z,6.20
2023-04-15T04:01:40.013Z,6.10
2023-04-15T04:04:07.055Z,6.10
2023-04-15T04:06:33.956Z,6.10
2023-04-15T04:09:01.887Z,6.10
2023-04-15T04:11:28.700Z,6.10
2023-04-15T04:13:55.466Z,6.10
2023-04-15T04:16:22.242Z,6.10
2023-04-15T04:18:49.052Z,6.10
2023-04-15T04:21:16.639Z,6.10
2023-04-15T04:23:43.469Z,6.10
2023-04-15T04:26:10.526Z,6.10
2023-04-15T04:28:37.642Z,6.10
2023-04-15T04:31:04.438Z,6.10
2023-04-15T04:33:31.374Z,6.10
2023-04-15T04:35:58.066Z,6.10
2023-04-15T04:38:25.257Z,6.10
2023-04-15T04:40:52.080Z,6.00
2023-04-15T04:43:18.800Z,6.10
2023-04-15T04:45:45.710Z,6.10
2023-04-15T04:48:12.456Z,6.00
2023-04-15T04:50:39.319Z,6.00
2023-04-15T04:53:06.161Z,5.80
2023-04-15T04:55:32.982Z,5.90
2023-04-15T04:57:59.836Z,6.00
2023-04-15T05:00:26.568Z,6.00
2023-04-15T05:02:53.964Z,6.00
2023-04-15T05:05:20.967Z,6.10
2023-04-15T05:07:49.240Z,6.10
2023-04-15T05:10:17.566Z,6.10
2023-04-15T05:12:44.564Z,6.10
2023-04-15T05:15:11.690Z,6.00
2023-04-15T05:17:38.622Z,6.00
2023-04-15T05:20:05.958Z,6.10
2023-04-15T05:22:32.798Z,6.10
2023-04-15T05:24:59.651Z,6.10
2023-04-15T05:27:26.592Z,6.10
2023-04-15T05:29:53.429Z,6.10
2023-04-15T05:32:20.728Z,6.20
2023-04-15T05:34:47.669Z,6.20
2023-04-15T05:37:14.843Z,6.30
2023-04-15T05:39:42.282Z,6.30
2023-04-15T05:42:09.072Z,6.30
2023-04-15T05:44:36.212Z,6.30
2023-04-15T05:47:03.753Z,6.20
2023-04-15T05:49:30.855Z,6.20
2023-04-15T05:51:57.597Z,6.40
2023-04-15T05:54:24.298Z,6.40
2023-04-15T05:56:51.038Z,6.40
2023-04-15T05:59:17.768Z,6.50
2023-04-15T06:01:45.284Z,6.60
2023-04-15T06:04:12.200Z,6.70
2023-04-15T06:06:39.063Z,6.80
2023-04-15T06:09:06.204Z,6.80
2023-04-15T06:11:33.745Z,6.90
2023-04-15T06:14:00.550Z,6.90
2023-04-15T06:16:27.347Z,6.80
2023-04-15T06:18:55.288Z,6.80
2023-04-15T06:21:22.143Z,6.80
2023-04-15T06:23:48.997Z,6.90
2023-04-15T06:26:15.884Z,7.00
2023-04-15T06:28:42.672Z,6.90
2023-04-15T06:31:09.471Z,6.70
2023-04-15T06:33:36.213Z,6.80
2023-04-15T06:36:03.053Z,6.80
2023-04-15T06:38:29.814Z,6.90
2023-04-15T06:40:56.613Z,6.90
2023-04-15T06:43:23.341Z,6.90
2023-04-15T06:45:51.113Z,6.90
2023-04-15T06:48:17.970Z,6.90
2023-04-15T06:50:45.117Z,7.00
2023-04-15T06:53:12.638Z,7.20
2023-04-15T06:55:40.184Z,7.30
2023-04-15T06:58:07.078Z,7.40
2023-04-15T07:00:34.169Z,7.50
2023-04-15T07:03:03.834Z,7.50
2023-04-15T07:05:31.058Z,7.60
2023-04-15T07:07:57.837Z,7.70
2023-04-15T07:10:25.704Z,7.70
2023-04-15T07:12:52.590Z,7.70
2023-04-15T07:15:19.619Z,7.80
2023-04-15T07:17:46.423Z,7.60
2023-04-15T07:20:13.927Z,7.60
2023-04-15T07:22:40.978Z,7.90
2023-04-15T07:25:08.550Z,8.10
2023-04-15T07:27:35.381Z,7.90
2023-04-15T07:30:02.707Z,7.80
2023-04-15T07:32:29.549Z,7.90
2023-04-15T07:34:56.742Z,8.10
2023-04-15T07:37:23.535Z,8.20
2023-04-15T07:39:50.333Z,8.30
2023-04-15T07:42:17.269Z,8.40
2023-04-15T07:44:43.998Z,8.50
2023-04-15T07:47:11.075Z,8.60
2023-04-15T07:49:38.146Z,8.50
2023-04-15T07:52:05.039Z,8.50
2023-04-15T07:54:32.252Z,8.60
2023-04-15T07:56:59.067Z,8.60
2023-04-15T07:59:27.745Z,8.70
2023-04-15T08:01:54.514Z,8.80
2023-04-15T08:04:21.550Z,8.80
2023-04-15T08:06:50.326Z,8.80
2023-04-15T08:09:17.474Z,8.90
2023-04-15T08:11:45.455Z,9.00
2023-04-15T08:14:12.504Z,9.10
2023-04-15T08:16:39.335Z,9.20
2023-04-15T08:19:06.170Z,9.30
2023-04-15T08:21:33.033Z,9.30
2023-04-15T08:24:00.453Z,9.50
2023-04-15T08:26:27.326Z,9.60
2023-04-15T08:28:54.132Z,9.80
2023-04-15T08:31:21.022Z,9.80
2023-04-15T08:33:48.258Z,9.90
2023-04-15T08:36:15.064Z,10.00
2023-04-15T08:38:41.977Z,10.00
2023-04-15T08:41:20.469Z,10.00
2023-04-15T08:44:01.220Z,10.00
2023-04-15T08:46:28.467Z,10.00
2023-04-15T08:48:57.914Z,10.10
2023-04-15T08:51:25.231Z,10.20
2023-04-15T08:53:52.628Z,11.10
2023-04-15T08:56:21.205Z,12.00
2023-04-15T08:58:48.878Z,12.20
2023-04-15T09:01:16.111Z,12.40
2023-04-15T09:03:44.083Z,12.30
2023-04-15T09:06:12.253Z,12.10
2023-04-15T09:08:39.086Z,12.30
2023-04-15T09:11:05.848Z,12.50
2023-04-15T09:13:32.617Z,12.50
2023-04-15T09:16:01.779Z,12.40
2023-04-15T09:18:33.074Z,12.50
2023-04-15T09:21:15.508Z,12.80
2023-04-15T09:23:58.409Z,12.50
2023-04-15T09:26:33.498Z,12.80
2023-04-15T09:29:07.609Z,13.10
2023-04-15T09:31:34.826Z,12.70
2023-04-15T09:34:02.042Z,12.70
2023-04-15T09:36:30.439Z,13.30
2023-04-15T09:39:00.733Z,13.30
2023-04-15T09:41:28.635Z,13.30
2023-04-15T09:43:55.598Z,13.20
2023-04-15T09:46:44.556Z,13.00
2023-04-15T09:49:13.223Z,12.90
2023-04-15T09:51:40.087Z,12.20
2023-04-15T09:54:07.338Z,11.50
2023-04-15T09:56:42.203Z,11.10
2023-04-15T09:59:09.445Z,11.00
2023-04-15T10:01:37.270Z,11.00
2023-04-15T10:04:05.397Z,11.00
2023-04-15T10:06:32.530Z,11.10
2023-04-15T10:08:59.630Z,11.20
2023-04-15T10:11:30.397Z,11.30
2023-04-15T10:13:58.484Z,11.30
2023-04-15T10:16:28.733Z,11.40
2023-04-15T10:18:56.917Z,11.30
2023-04-15T10:21:24.123Z,11.30
2023-04-15T10:23:51.339Z,11.20
2023-04-15T10:26:18.463Z,11.30
2023-04-15T10:28:48.228Z,11.10
2023-04-15T10:31:17.123Z,11.10
2023-04-15T10:33:45.851Z,11.10
2023-04-15T10:36:13.226Z,11.10
2023-04-15T10:38:45.742Z,11.00
2023-04-15T10:41:21.183Z,10.90
2023-04-15T10:43:54.068Z,10.70
2023-04-15T10:46:36.812Z,10.70
2023-04-15T10:49:25.924Z,10.80
2023-04-15T10:51:57.832Z,10.80
2023-04-15T10:54:24.565Z,10.80
2023-04-15T10:56:52.986Z,10.90
2023-04-15T10:59:21.401Z,10.80
2023-04-15T11:01:57.855Z,10.80
2023-04-15T11:04:59.053Z,10.80
2023-04-15T11:07:44.746Z,10.80
2023-04-15T11:10:14.252Z,10.90
2023-04-15T11:12:42.040Z,10.80
2023-04-15T11:15:37.798Z,10.90
2023-04-15T11:18:11.968Z,10.90
2023-04-15T11:20:40.170Z,10.90
2023-04-15T11:23:15.170Z,10.90
2023-04-15T11:25:43.771Z,10.80
2023-04-15T11:28:12.491Z,10.90
2023-04-15T11:30:40.510Z,10.70
2023-04-15T11:33:09.619Z,10.60
2023-04-15T11:35:36.963Z,10.60
2023-04-15T11:38:05.349Z,10.50
2023-04-15T11:40:35.752Z,10.50
2023-04-15T11:43:09.364Z,10.40
2023-04-15T11:45:37.334Z,10.30
2023-04-15T11:48:12.255Z,10.30
2023-04-15T11:50:41.144Z,10.40
2023-04-15T11:53:10.049Z,10.50
2023-04-15T11:55:44.715Z,10.50
2023-04-15T11:58:16.395Z,10.60
2023-04-15T12:01:01.894Z,10.60
2023-04-15T12:03:37.350Z,10.60
2023-04-15T12:06:17.880Z,10.70
2023-04-15T12:09:07.014Z,10.60
2023-04-15T12:11:44.283Z,10.70
2023-04-15T12:14:20.252Z,10.70
2023-04-15T12:16:51.629Z,10.70
2023-04-15T12:19:32.504Z,10.80
2023-04-15T12:22:04.125Z,10.70
2023-04-15T12:24:34.932Z,10.70
2023-04-15T12:27:10.777Z,10.70
2023-04-15T12:29:39.246Z,10.70
2023-04-15T12:32:16.815Z,10.70
2023-04-15T12:34:50.290Z,10.70
2023-04-15T12:37:17.709Z,10.80
2023-04-15T12:39:51.731Z,10.70
2023-04-15T12:42:18.948Z,10.70
2023-04-15T12:44:46.492Z,10.70
2023-04-15T12:47:13.529Z,10.60
2023-04-15T12:49:40.862Z,10.60
2023-04-15T12:52:07.795Z,10.50
2023-04-15T12:54:35.947Z,10.40
2023-04-15T12:57:05.926Z,10.40
2023-04-15T12:59:33.836Z,10.40
2023-04-15T13:02:02.784Z,10.40
2023-04-15T13:04:30.879Z,10.40
2023-04-15T13:06:58.238Z,10.30
2023-04-15T13:09:25.154Z,10.30
2023-04-15T13:11:52.729Z,10.00
2023-04-15T13:14:19.720Z,10.10
2023-04-15T13:16:46.594Z,10.10
2023-04-15T13:19:13.992Z,10.10
2023-04-15T13:21:41.025Z,10.00
2023-04-15T13:24:08.194Z,10.10
2023-04-15T13:26:36.013Z,10.20
2023-04-15T13:29:04.118Z,10.10
2023-04-15T13:31:31.119Z,10.20
2023-04-15T13:33:58.094Z,10.20
2023-04-15T13:36:24.999Z,10.20
2023-04-15T13:38:51.975Z,10.20
2023-04-15T13:41:20.075Z,10.20
2023-04-15T13:43:47.197Z,10.20
2023-04-15T13:46:14.249Z,10.20
2023-04-15T13:48:41.372Z,10.10
2023-04-15T13:51:08.165Z,10.10
2023-04-15T13:53:39.182Z,10.10
2023-04-15T13:56:10.348Z,9.90
2023-04-15T13:58:38.355Z,9.90
2023-04-15T14:01:07.060Z,10.00
2023-04-15T14:03:35.833Z,9.90
2023-04-15T14:06:03.462Z,9.80
2023-04-15T14:08:30.352Z,9.80
2023-04-15T14:10:57.634Z,9.80
2023-04-15T14:13:24.521Z,9.80
2023-04-15T14:15:51.476Z,9.80
2023-04-15T14:18:18.244Z,9.80
2023-04-15T14:20:45.063Z,9.90
2023-04-15T14:23:11.900Z,9.90
2023-04-15T14:25:39.518Z,9.90
2023-04-15T14:28:06.513Z,9.90
2023-04-15T14:30:33.664Z,9.90
2023-04-15T14:33:00.822Z,9.90
2023-04-15T14:35:28.014Z,9.80
2023-04-15T14:37:55.685Z,9.80
2023-04-15T14:40:22.744Z,9.80
2023-04-15T14:42:49.622Z,9.90
2023-04-15T14:45:16.542Z,9.80
2023-04-15T14:47:43.736Z,9.90
2023-04-15T14:50:10.759Z,9.80
2023-04-15T14:52:40.242Z,9.80
2023-04-15T14:55:10.337Z,9.80
2023-04-15T14:57:41.875Z,9.70
2023-04-15T15:00:11.885Z,9.80
2023-04-15T15:02:40.665Z,9.80
2023-04-15T15:05:10.363Z,9.80
2023-04-15T15:07:38.111Z,9.90
2023-04-15T15:10:06.132Z,9.90
2023-04-15T15:12:33.545Z,9.90
2023-04-15T15:15:02.924Z,9.90
2023-04-15T15:17:31.791Z,9.90
2023-04-15T15:19:58.670Z,9.80
2023-04-15T15:22:26.170Z,9.80
2023-04-15T15:24:53.581Z,9.80
2023-04-15T15:27:20.569Z,9.90
2023-04-15T15:29:47.481Z,9.80
2023-04-15T15:32:14.186Z,9.80
2023-04-15T15:34:40.965Z,9.80
2023-04-15T15:37:07.724Z,9.70
2023-04-15T15:39:35.500Z,9.70
2023-04-15T15:42:02.277Z,9.70
2023-04-15T15:44:28.940Z,9.80
2023-04-15T15:46:55.938Z,9.80
2023-04-15T15:49:22.755Z,9.80
2023-04-15T15:51:49.906Z,9.80
2023-04-15T15:54:17.006Z,9.80
2023-04-15T15:56:43.732Z,9.80
2023-04-15T15:59:10.536Z,9.60
2023-04-15T16:01:37.284Z,9.70
2023-04-15T16:04:04.222Z,9.70
2023-04-15T16:06:34.432Z,9.70
2023-04-15T16:09:02.207Z,9.60
2023-04-15T16:11:29.620Z,9.60
2023-04-15T16:13:56.469Z,9.70
2023-04-15T16:16:24.253Z,9.70
2023-04-15T16:18:51.100Z,9.70
2023-04-15T16:21:17.939Z,9.70
2023-04-15T16:23:44.864Z,9.70
2023-04-15T16:26:11.647Z,9.70
2023-04-15T16:28:38.383Z,9.70
2023-04-15T16:31:05.375Z,9.70
2023-04-15T16:33:32.518Z,9.70
2023-04-15T16:35:59.348Z,9.70
2023-04-15T16:38:26.122Z,9.80
2023-04-15T16:40:52.958Z,9.80
2023-04-15T16:43:19.857Z,9.80
2023-04-15T16:45:51.702Z,9.70
2023-04-15T16:48:21.835Z,9.70
2023-04-15T16:50:49.329Z,9.60
2023-04-15T16:53:16.175Z,9.70
2023-04-15T16:55:42.996Z,9.70
2023-04-15T16:58:09.765Z,9.60
2023-04-15T17:00:37.278Z,9.60
2023-04-15T17:03:05.525Z,9.60
2023-04-15T17:05:32.588Z,9.60
2023-04-15T17:07:59.315Z,9.60
2023-04-15T17:10:26.683Z,9.60
2023-04-15T17:12:56.379Z,9.50
2023-04-15T17:15:23.211Z,9.60
2023-04-15T17:17:50.545Z,9.60
2023-04-15T17:20:17.560Z,9.60
2023-04-15T17:22:44.402Z,9.60
2023-04-15T17:25:11.197Z,9.50
2023-04-15T17:27:38.717Z,9.50
2023-04-15T17:30:07.148Z,9.50
2023-04-15T17:32:34.871Z,9.40
2023-04-15T17:35:05.526Z,9.50
2023-04-15T17:37:36.161Z,9.50
2023-04-15T17:40:03.496Z,9.50
2023-04-15T17:42:30.497Z,9.60
2023-04-15T17:44:57.232Z,9.50
2023-04-15T17:47:24.007Z,9.60
2023-04-15T17:49:51.201Z,9.60
2023-04-15T17:52:17.997Z,9.60
2023-04-15T17:54:46.251Z,9.60
2023-04-15T17:57:13.017Z,9.50
2023-04-15T17:59:43.818Z,9.50
2023-04-15T18:02:11.653Z,9.50
2023-04-15T18:04:39.092Z,9.50
2023-04-15T18:07:06.252Z,9.40
2023-04-15T18:09:32.974Z,9.50
2023-04-15T18:11:59.714Z,9.50
2023-04-15T18:14:34.342Z,9.50
2023-04-15T18:17:05.077Z,9.50
2023-04-15T18:19:32.084Z,9.50
2023-04-15T18:22:00.249Z,9.40
2023-04-15T18:24:28.025Z,9.30
2023-04-15T18:26:54.753Z,9.30
2023-04-15T18:29:21.539Z,9.30
2023-04-15T18:31:48.692Z,9.30
2023-04-15T18:34:15.689Z,9.30
2023-04-15T18:36:42.442Z,9.40
2023-04-15T18:39:09.643Z,9.40
2023-04-15T18:41:36.345Z,9.30
2023-04-15T18:44:03.073Z,9.30
2023-04-15T18:46:29.834Z,9.20
2023-04-15T18:48:56.602Z,9.30
2023-04-15T18:51:23.343Z,9.20
2023-04-15T18:53:50.378Z,9.30
2023-04-15T18:56:17.252Z,9.20
2023-04-15T18:59:25.422Z,9.20
2023-04-15T19:01:32.037Z,9.30
2023-04-15T19:03:59.594Z,9.30
2023-04-15T19:06:28.564Z,9.30
2023-04-15T19:08:55.418Z,9.30
2023-04-15T19:11:22.239Z,9.20
2023-04-15T19:13:49.123Z,9.30
2023-04-15T19:16:16.201Z,9.30
2023-04-15T19:18:43.373Z,9.00
2023-04-15T19:21:14.412Z,9.00
2023-04-15T19:23:43.089Z,9.10
2023-04-15T19:26:10.297Z,9.10
2023-04-15T19:28:37.454Z,9.20
2023-04-15T19:31:04.528Z,9.10
2023-04-15T19:33:32.037Z,9.00
2023-04-15T19:36:04.340Z,8.90
2023-04-15T19:38:32.394Z,9.00
2023-04-15T19:40:59.594Z,9.10
2023-04-15T19:43:26.458Z,9.00
2023-04-15T19:45:55.050Z,9.00
2023-04-15T19:48:23.082Z,9.00
2023-04-15T19:50:50.133Z,9.00
2023-04-15T19:53:17.491Z,9.00
2023-04-15T19:55:44.265Z,9.00
2023-04-15T19:58:11.365Z,8.90
2023-04-15T20:00:38.472Z,8.80
2023-04-15T20:03:06.088Z,8.90
2023-04-15T20:05:33.224Z,8.90
2023-04-15T20:08:01.786Z,8.90
2023-04-15T20:10:28.702Z,8.90
2023-04-15T20:12:55.505Z,9.00
2023-04-15T20:15:23.971Z,8.90
2023-04-15T20:17:51.329Z,8.90
2023-04-15T20:20:18.290Z,8.80
2023-04-15T20:22:45.319Z,8.70
2023-04-15T20:25:12.204Z,8.80
2023-04-15T20:27:39.003Z,8.70
2023-04-15T20:30:06.547Z,8.70
2023-04-15T20:32:35.922Z,8.70
2023-04-15T20:35:04.345Z,8.70
2023-04-15T20:37:33.559Z,8.70
2023-04-15T20:40:01.357Z,8.70
2023-04-15T20:42:31.816Z,8.70
2023-04-15T20:44:58.610Z,8.70
2023-04-15T20:47:25.536Z,8.80
2023-04-15T20:49:52.528Z,8.70
2023-04-15T20:52:19.267Z,8.70
2023-04-15T20:54:47.064Z,8.70
2023-04-15T20:57:13.831Z,8.80
2023-04-15T20:59:40.816Z,8.80
2023-04-15T21:02:07.844Z,8.80
2023-04-15T21:04:34.641Z,8.90
2023-04-15T21:07:01.763Z,8.80
2023-04-15T21:09:28.602Z,8.80
2023-04-15T21:12:00.475Z,8.80
2023-04-15T21:14:28.957Z,8.90
2023-04-15T21:16:58.050Z,8.80
2023-04-15T21:19:25.002Z,8.80
2023-04-15T21:21:52.211Z,8.80
2023-04-15T21:24:19.004Z,8.90
2023-04-15T21:26:45.880Z,8.90
2023-04-15T21:29:12.923Z,8.80
2023-04-15T21:31:40.738Z,8.80
2023-04-15T21:34:09.557Z,8.80
2023-04-15T21:36:37.773Z,8.80
2023-04-15T21:39:05.736Z,8.70
2023-04-15T21:41:32.776Z,8.70
2023-04-15T21:43:59.750Z,8.70
2023-04-15T21:46:32.971Z,8.70
2023-04-15T21:49:01.761Z,8.80
2023-04-15T21:51:28.581Z,8.80
2023-04-15T21:53:55.949Z,8.90
2023-04-15T21:56:24.219Z,8.90
2023-04-15T21:58:56.734Z,9.00
2023-04-15T22:01:24.142Z,8.90
2023-04-15T22:03:51.385Z,8.80
2023-04-15T22:06:18.286Z,8.80
2023-04-15T22:08:55.954Z,8.80
2023-04-15T22:11:27.680Z,8.70
2023-04-15T22:13:55.171Z,8.60
2023-04-15T22:16:22.193Z,8.60
2023-04-15T22:18:49.221Z,8.60
2023-04-15T22:21:16.291Z,8.70
2023-04-15T22:23:47.108Z,8.70
2023-04-15T22:26:14.307Z,8.70
2023-04-15T22:28:41.065Z,8.70
2023-04-15T22:31:08.115Z,8.60
2023-04-15T22:33:35.226Z,8.70
2023-04-15T22:36:02.000Z,8.70
2023-04-15T22:38:28.739Z,8.60
2023-04-15T22:40:55.546Z,8.70
2023-04-15T22:43:22.584Z,8.70
2023-04-15T22:45:54.797Z,8.60
2023-04-15T22:48:21.828Z,8.60
2023-04-15T22:50:48.962Z,8.60
2023-04-15T22:53:17.351Z,8.60
2023-04-15T22:55:48.488Z,8.60
2023-04-15T22:58:16.220Z,8.70
2023-04-15T23:00:43.301Z,8.70
2023-04-15T23:03:10.933Z,8.60
2023-04-15T23:05:40.027Z,8.60
2023-04-15T23:08:07.209Z,8.70
2023-04-15T23:10:34.060Z,8.70
2023-04-15T23:13:00.869Z,8.60
2023-04-15T23:15:27.721Z,8.70
2023-04-15T23:17:54.496Z,8.80
2023-04-15T23:20:21.364Z,8.90
2023-04-15T23:22:48.124Z,8.90
2023-04-15T23:25:15.297Z,8.80
2023-04-15T23:27:42.197Z,8.80
2023-04-15T23:30:09.266Z,8.80
2023-04-15T23:32:36.516Z,8.70
2023-04-15T23:35:03.550Z,8.80
2023-04-15T23:37:31.398Z,8.80
2023-04-15T23:39:58.181Z,8.80
2023-04-15T23:42:25.060Z,8.80
2023-04-15T23:44:51.908Z,8.90
2023-04-15T23:47:18.899Z,8.90
2023-04-15T23:49:46.057Z,8.80
2023-04-15T23:52:12.817Z,8.80
2023-04-15T23:54:40.018Z,8.90
2023-04-15T23:57:06.822Z,8.90
2023-04-15T23:59:33.632Z,8.90
